San Diego International Airport San Diego US
ICAO: KSAN
IATA: SAN
Category: Large
Scheduled Services: Yes

Elevation: 17 ft
TransAlt. 18000 ft.

Airport Communications:
SOCAL APP/DEP:119.6
ATIS:134.8
CLNC DEL:125.9
GND:123.9
CG:157.15
CG:898.4
LINDBERGH TWR:118.3
UNICOM:122.95

KSAN Zoom In..

Runways:

(A) RW 09 length 9400 ft width 200 ft
ILS 111.55 / hdg 92

(B) RW 27 length 9400 ft width 200 ft
LOC 110.90 / hdg 272

Location; KSAN
Day. 07 / Time. 14.51 Zulu
* Altimeter: 29.95
* Temperature: 19° c. 66.2°f.
* Wind from: 290° Speed 03 kn.
Dewpoint: 13° c.
Visibility: 10 Statute Miles.
Clouds: Broken 1800 ft.

KSAN 071451Z 29003KT 10SM BKN018 19/13 A2995 RMK AO2 SLP142 T01890133 53013

Going to: --> -->


Wind From 290°
Speed 03 kn.

 
 
jpsmedia worldairports.se 2020   terms of use